Time;durP1;ratioP1;P1;durP2;ratioP2;P2;SDS_P1;SDS_P2;PMS_P1;PMS_P2;Temp;Humidity;BMP_temperature;BMP_pressure;BME280_temperature;BME280_humidity;BME280_pressure;Samples;Min_cycle;Max_cycle;Signal;HPM_P1;HPM_P2
2022/07/03 00:01:28;;;;;;;;;;;24.30;56.60;;;;;;5001307;28;19921;-79
2022/07/03 00:03:55;;;;;;;;;;;24.30;56.50;;;;;;5000736;28;19921;-79
2022/07/03 00:06:22;;;;;;;;;;;24.30;56.50;;;;;;5000721;28;20024;-79
2022/07/03 00:08:50;;;;;;;;;;;24.30;56.50;;;;;;5001502;28;20015;-79
2022/07/03 00:11:17;;;;;;;;;;;24.30;56.50;;;;;;5001473;28;19921;-79
2022/07/03 00:13:43;;;;;;;;;;;24.20;56.40;;;;;;5001035;28;19956;-79
2022/07/03 00:16:10;;;;;;;;;;;24.20;56.40;;;;;;5001278;28;20013;-79
2022/07/03 00:18:37;;;;;;;;;;;24.20;56.40;;;;;;5000975;28;20021;-79
2022/07/03 00:21:04;;;;;;;;;;;24.20;56.40;;;;;;5000599;28;19956;-79
2022/07/03 00:23:35;;;;;;;;;;;24.20;56.40;;;;;;4998975;28;20374;-79
2022/07/03 00:26:05;;;;;;;;;;;24.20;56.30;;;;;;4999528;28;19928;-79
2022/07/03 00:28:32;;;;;;;;;;;24.20;56.40;;;;;;4998905;28;20012;-79
2022/07/03 00:30:59;;;;;;;;;;;24.20;56.30;;;;;;5000182;28;20016;-79
2022/07/03 00:33:27;;;;;;;;;;;24.20;56.30;;;;;;4999791;28;19922;-79
2022/07/03 00:35:55;;;;;;;;;;;24.20;56.30;;;;;;5000127;28;20404;-79
2022/07/03 00:38:22;;;;;;;;;;;24.20;56.30;;;;;;5000073;28;20008;-79
2022/07/03 00:40:49;;;;;;;;;;;24.20;56.20;;;;;;4999556;28;20025;-79
2022/07/03 00:43:17;;;;;;;;;;;24.20;56.20;;;;;;4998760;28;19928;-79
2022/07/03 00:45:47;;;;;;;;;;;24.20;56.20;;;;;;4996097;28;20285;-79
2022/07/03 00:48:15;;;;;;;;;;;24.20;56.10;;;;;;4996567;28;19928;-79
2022/07/03 00:50:46;;;;;;;;;;;24.20;56.10;;;;;;4996305;28;20382;-79
2022/07/03 00:53:13;;;;;;;;;;;24.20;56.10;;;;;;4996549;28;19961;-79
2022/07/03 00:55:41;;;;;;;;;;;24.20;56.10;;;;;;4996246;28;19928;-79
2022/07/03 00:58:08;;;;;;;;;;;24.20;56.00;;;;;;4995911;28;20396;-79
2022/07/03 01:00:40;;;;;;;;;;;24.20;56.00;;;;;;4996010;28;19961;-79
2022/07/03 01:03:08;;;;;;;;;;;24.20;56.00;;;;;;4996440;28;19921;-79
2022/07/03 01:05:36;;;;;;;;;;;24.10;55.90;;;;;;4996215;28;19952;-79
2022/07/03 01:08:08;;;;;;;;;;;24.10;55.90;;;;;;4995435;28;20381;-79
2022/07/03 01:10:38;;;;;;;;;;;24.10;55.80;;;;;;4995627;28;20391;-79
2022/07/03 01:13:07;;;;;;;;;;;24.10;55.80;;;;;;4995974;28;19921;-79
2022/07/03 01:15:42;;;;;;;;;;;24.20;55.80;;;;;;4995942;28;20274;-79
2022/07/03 01:18:22;;;;;;;;;;;24.10;55.70;;;;;;4995946;28;19936;-79
2022/07/03 01:20:53;;;;;;;;;;;24.10;55.70;;;;;;4995998;28;20024;-79
2022/07/03 01:23:21;;;;;;;;;;;24.10;55.60;;;;;;4996095;28;19928;-79
2022/07/03 01:25:50;;;;;;;;;;;24.10;55.60;;;;;;4995526;28;19928;-79
2022/07/03 01:28:19;;;;;;;;;;;24.10;55.50;;;;;;4995652;28;19928;-79
2022/07/03 01:30:48;;;;;;;;;;;24.10;55.50;;;;;;4996472;28;20440;-79
2022/07/03 01:33:16;;;;;;;;;;;24.10;55.40;;;;;;4999073;28;19928;-79
2022/07/03 01:35:47;;;;;;;;;;;24.10;55.30;;;;;;5001152;28;20016;-79
2022/07/03 01:38:15;;;;;;;;;;;24.10;55.30;;;;;;5001919;28;20016;-79
2022/07/03 01:40:43;;;;;;;;;;;24.10;55.30;;;;;;5001487;28;20365;-80
2022/07/03 01:43:13;;;;;;;;;;;24.10;55.30;;;;;;5001404;28;20020;-79
2022/07/03 01:45:46;;;;;;;;;;;24.10;55.30;;;;;;5002410;28;19925;-79
2022/07/03 01:48:13;;;;;;;;;;;24.10;55.30;;;;;;5001938;28;20024;-79
2022/07/03 01:50:40;;;;;;;;;;;24.00;55.20;;;;;;5001999;28;20318;-79
2022/07/03 01:53:08;;;;;;;;;;;24.00;55.20;;;;;;5001061;28;19980;-79
2022/07/03 01:55:35;;;;;;;;;;;24.00;55.20;;;;;;5001464;28;20016;-79
2022/07/03 01:58:02;;;;;;;;;;;24.00;55.20;;;;;;5001228;28;20365;-79
2022/07/03 02:00:30;;;;;;;;;;;24.00;55.20;;;;;;5001254;28;19928;-79
2022/07/03 02:02:58;;;;;;;;;;;24.00;55.20;;;;;;5001587;28;19964;-79
2022/07/03 02:05:30;;;;;;;;;;;24.00;55.20;;;;;;5001134;28;20012;-79
2022/07/03 02:08:03;;;;;;;;;;;24.00;55.20;;;;;;5003971;28;20023;-79
2022/07/03 02:10:30;;;;;;;;;;;24.00;55.20;;;;;;5005670;28;19922;-79
2022/07/03 02:13:01;;;;;;;;;;;24.00;55.20;;;;;;5004763;28;20020;-79
2022/07/03 02:15:30;;;;;;;;;;;24.00;55.10;;;;;;5004146;28;19941;-79
2022/07/03 02:17:58;;;;;;;;;;;24.00;55.00;;;;;;5004088;28;20009;-79
2022/07/03 02:20:25;;;;;;;;;;;24.00;54.90;;;;;;5003979;28;19921;-79
2022/07/03 02:22:53;;;;;;;;;;;24.00;54.80;;;;;;5004182;28;19926;-79
2022/07/03 02:25:22;;;;;;;;;;;24.00;54.80;;;;;;5003245;28;19921;-79
2022/07/03 02:27:51;;;;;;;;;;;24.00;54.80;;;;;;5004670;28;20020;-79
2022/07/03 02:30:18;;;;;;;;;;;24.00;54.70;;;;;;5004008;28;20012;-79
2022/07/03 02:32:50;;;;;;;;;;;24.00;54.70;;;;;;5004166;28;19960;-79
2022/07/03 02:35:22;;;;;;;;;;;24.00;54.60;;;;;;5004602;28;19922;-79
2022/07/03 02:37:51;;;;;;;;;;;24.00;54.50;;;;;;5004736;28;20023;-79
2022/07/03 02:40:22;;;;;;;;;;;24.00;54.50;;;;;;5004852;28;19921;-80
2022/07/03 02:42:56;;;;;;;;;;;24.00;54.40;;;;;;5005885;28;19929;-79
2022/07/03 02:45:26;;;;;;;;;;;23.90;54.30;;;;;;5005830;28;20020;-79
2022/07/03 02:47:57;;;;;;;;;;;23.90;54.20;;;;;;5005063;28;20008;-79
2022/07/03 02:50:28;;;;;;;;;;;23.90;54.20;;;;;;5004931;28;20385;-79
2022/07/03 02:52:57;;;;;;;;;;;23.90;54.10;;;;;;5005007;28;19964;-79
2022/07/03 02:55:34;;;;;;;;;;;23.90;54.10;;;;;;5003205;28;19923;-79
2022/07/03 02:58:06;;;;;;;;;;;23.90;54.10;;;;;;5004062;28;19928;-79
2022/07/03 03:00:34;;;;;;;;;;;23.90;54.00;;;;;;5006274;28;19968;-79
2022/07/03 03:03:01;;;;;;;;;;;23.90;53.90;;;;;;5005452;28;20020;-79
2022/07/03 03:05:31;;;;;;;;;;;23.90;53.90;;;;;;5004509;28;20016;-79
2022/07/03 03:08:04;;;;;;;;;;;23.90;53.80;;;;;;5003881;28;20020;-79
2022/07/03 03:10:33;;;;;;;;;;;23.90;53.80;;;;;;5004321;28;19921;-79
2022/07/03 03:13:04;;;;;;;;;;;23.90;53.70;;;;;;5003017;28;20444;-79
2022/07/03 03:15:31;;;;;;;;;;;23.90;53.70;;;;;;5006056;28;20310;-79
2022/07/03 03:18:01;;;;;;;;;;;23.90;53.60;;;;;;5003533;28;19922;-79
2022/07/03 03:20:31;;;;;;;;;;;23.90;53.60;;;;;;5003242;28;19928;-79
2022/07/03 03:23:10;;;;;;;;;;;23.90;53.50;;;;;;5003761;28;19988;-79
2022/07/03 03:25:36;;;;;;;;;;;23.80;53.40;;;;;;5003765;28;20440;-79
2022/07/03 03:28:03;;;;;;;;;;;23.80;53.30;;;;;;5002923;28;20028;-79
2022/07/03 03:30:30;;;;;;;;;;;23.80;53.20;;;;;;5002931;28;20004;-79
2022/07/03 03:32:56;;;;;;;;;;;23.80;53.20;;;;;;5003735;28;20012;-79
2022/07/03 03:35:24;;;;;;;;;;;23.80;53.10;;;;;;5003649;28;19926;-79
2022/07/03 03:37:52;;;;;;;;;;;23.80;53.10;;;;;;5002590;28;20008;-79
2022/07/03 03:40:19;;;;;;;;;;;23.80;53.00;;;;;;5003123;28;19961;-79
2022/07/03 03:42:45;;;;;;;;;;;23.80;53.00;;;;;;5003110;28;19956;-79
2022/07/03 03:45:12;;;;;;;;;;;23.80;53.00;;;;;;5003533;28;20029;-79
2022/07/03 03:47:39;;;;;;;;;;;23.80;52.90;;;;;;5002772;28;19922;-79
2022/07/03 03:50:06;;;;;;;;;;;23.80;52.90;;;;;;5003294;28;20440;-79
2022/07/03 03:52:33;;;;;;;;;;;23.80;52.80;;;;;;5002670;28;20012;-79
2022/07/03 03:55:01;;;;;;;;;;;23.80;52.80;;;;;;5002527;28;20020;-79
2022/07/03 03:57:27;;;;;;;;;;;23.80;52.70;;;;;;5002837;28;19992;-79
2022/07/03 03:59:55;;;;;;;;;;;23.80;52.70;;;;;;5001911;28;20024;-79
2022/07/03 04:02:22;;;;;;;;;;;23.80;52.60;;;;;;5002574;28;19929;-79
2022/07/03 04:04:48;;;;;;;;;;;23.80;52.60;;;;;;5001842;28;20013;-79
2022/07/03 04:07:15;;;;;;;;;;;23.80;52.50;;;;;;5001470;28;19922;-79
2022/07/03 04:09:42;;;;;;;;;;;23.80;52.50;;;;;;5002560;28;20464;-79
2022/07/03 04:12:11;;;;;;;;;;;23.80;52.50;;;;;;5002874;28;19921;-79
2022/07/03 04:14:37;;;;;;;;;;;23.80;52.40;;;;;;5002788;28;20009;-79
2022/07/03 04:17:04;;;;;;;;;;;23.80;52.40;;;;;;5002455;28;19959;-79
2022/07/03 04:19:31;;;;;;;;;;;23.80;52.30;;;;;;5002111;28;20368;-79
2022/07/03 04:21:58;;;;;;;;;;;23.80;52.30;;;;;;5002690;28;19922;-79
2022/07/03 04:24:25;;;;;;;;;;;23.80;52.30;;;;;;5001667;28;20012;-79
2022/07/03 04:26:52;;;;;;;;;;;23.80;52.20;;;;;;5001804;28;19929;-79
2022/07/03 04:29:20;;;;;;;;;;;23.80;52.20;;;;;;5001119;28;20372;-78
2022/07/03 04:31:46;;;;;;;;;;;23.80;52.20;;;;;;5001645;28;20325;-79
2022/07/03 04:34:13;;;;;;;;;;;23.80;52.20;;;;;;5002083;28;20372;-79
2022/07/03 04:36:40;;;;;;;;;;;23.80;52.10;;;;;;5003692;28;19929;-79
2022/07/03 04:39:07;;;;;;;;;;;23.80;52.10;;;;;;5003542;28;19956;-80
2022/07/03 04:41:33;;;;;;;;;;;23.80;52.10;;;;;;5003534;28;19967;-80
2022/07/03 04:44:00;;;;;;;;;;;23.80;52.10;;;;;;5003917;28;19964;-79
2022/07/03 04:46:28;;;;;;;;;;;23.80;52.00;;;;;;5004357;28;20021;-79
2022/07/03 04:48:54;;;;;;;;;;;23.80;52.00;;;;;;5003716;28;20428;-79
2022/07/03 04:51:21;;;;;;;;;;;23.80;52.00;;;;;;5003548;28;19957;-79
2022/07/03 04:53:48;;;;;;;;;;;23.80;52.00;;;;;;5002564;28;20012;-79
2022/07/03 04:56:14;;;;;;;;;;;23.80;52.60;;;;;;5002833;28;20441;-79
2022/07/03 04:58:41;;;;;;;;;;;23.80;52.00;;;;;;5002612;28;20028;-79
2022/07/03 05:01:08;;;;;;;;;;;23.90;52.10;;;;;;5002197;28;19922;-79
2022/07/03 05:03:36;;;;;;;;;;;23.80;51.90;;;;;;5001451;28;20020;-79
2022/07/03 05:06:02;;;;;;;;;;;23.90;52.00;;;;;;5000719;28;19953;-79
2022/07/03 05:08:29;;;;;;;;;;;23.90;52.00;;;;;;5002622;28;20401;-79
2022/07/03 05:10:56;;;;;;;;;;;23.90;52.00;;;;;;5003499;28;20021;-79
2022/07/03 05:13:22;;;;;;;;;;;23.90;52.00;;;;;;5002009;28;19922;-79
2022/07/03 05:15:49;;;;;;;;;;;23.90;52.00;;;;;;5002584;28;19969;-79
2022/07/03 05:18:16;;;;;;;;;;;23.90;52.00;;;;;;5002038;28;19980;-79
2022/07/03 05:20:44;;;;;;;;;;;23.90;52.00;;;;;;5002645;28;19984;-79
2022/07/03 05:23:10;;;;;;;;;;;23.90;52.00;;;;;;5002732;28;19981;-79
2022/07/03 05:25:37;;;;;;;;;;;23.90;52.00;;;;;;5002322;28;20330;-79
2022/07/03 05:28:04;;;;;;;;;;;23.90;51.90;;;;;;5002610;28;19945;-79
2022/07/03 05:30:30;;;;;;;;;;;23.90;52.00;;;;;;5002673;28;20008;-79
2022/07/03 05:32:57;;;;;;;;;;;23.90;52.00;;;;;;5003354;28;20016;-79
2022/07/03 05:35:24;;;;;;;;;;;23.90;52.00;;;;;;5003773;28;20384;-79
2022/07/03 05:37:52;;;;;;;;;;;24.00;52.10;;;;;;5002868;28;20353;-79
2022/07/03 05:40:19;;;;;;;;;;;23.90;52.00;;;;;;5002597;28;20005;-79
2022/07/03 05:42:45;;;;;;;;;;;24.00;52.10;;;;;;5004241;28;19961;-79
2022/07/03 05:45:12;;;;;;;;;;;24.00;52.10;;;;;;5006170;28;19968;-79
2022/07/03 05:47:39;;;;;;;;;;;24.00;52.10;;;;;;5006497;28;20345;-79
2022/07/03 05:50:06;;;;;;;;;;;23.90;52.00;;;;;;5005593;28;19922;-79
2022/07/03 05:52:32;;;;;;;;;;;24.00;52.10;;;;;;5006088;28;19977;-79
2022/07/03 05:55:00;;;;;;;;;;;24.00;52.10;;;;;;5006271;28;19922;-79
2022/07/03 05:57:27;;;;;;;;;;;24.00;52.10;;;;;;5007996;28;20015;-79
2022/07/03 05:59:54;;;;;;;;;;;24.00;52.10;;;;;;5010001;28;20024;-79
2022/07/03 06:02:21;;;;;;;;;;;24.00;52.10;;;;;;5010146;28;19960;-79
2022/07/03 06:04:47;;;;;;;;;;;24.00;52.10;;;;;;5008768;28;19929;-79
2022/07/03 06:07:16;;;;;;;;;;;24.00;52.20;;;;;;5006791;28;19961;-79
2022/07/03 06:09:43;;;;;;;;;;;24.00;52.20;;;;;;5007198;28;19922;-79
2022/07/03 06:12:11;;;;;;;;;;;24.00;52.20;;;;;;5004875;28;19985;-79
2022/07/03 06:14:38;;;;;;;;;;;24.00;52.30;;;;;;5004468;28;19922;-79
2022/07/03 06:17:05;;;;;;;;;;;24.00;52.30;;;;;;5005468;28;19993;-79
2022/07/03 06:19:31;;;;;;;;;;;24.00;52.30;;;;;;5004913;28;19968;-79
2022/07/03 06:21:58;;;;;;;;;;;24.00;52.30;;;;;;5004655;28;19921;-79
2022/07/03 06:24:25;;;;;;;;;;;24.00;52.30;;;;;;5004885;28;20391;-79
2022/07/03 06:26:51;;;;;;;;;;;24.00;52.40;;;;;;5004247;28;20354;-79
2022/07/03 06:29:19;;;;;;;;;;;24.00;52.40;;;;;;5006252;28;19961;-79
2022/07/03 06:31:46;;;;;;;;;;;24.00;52.50;;;;;;5005682;28;19981;-79
2022/07/03 06:34:13;;;;;;;;;;;24.00;52.50;;;;;;5006351;28;19964;-79
2022/07/03 06:36:39;;;;;;;;;;;24.10;52.60;;;;;;5004222;28;19981;-79
2022/07/03 06:39:06;;;;;;;;;;;24.10;52.60;;;;;;5003597;28;20012;-79
2022/07/03 06:41:32;;;;;;;;;;;24.10;52.70;;;;;;5003541;28;20013;-79
2022/07/03 06:43:59;;;;;;;;;;;24.10;52.70;;;;;;5004023;28;19967;-79
2022/07/03 06:46:27;;;;;;;;;;;24.10;52.80;;;;;;5003610;28;19921;-79
2022/07/03 06:48:54;;;;;;;;;;;24.10;52.80;;;;;;5003030;28;19951;-80
2022/07/03 06:51:20;;;;;;;;;;;24.10;52.80;;;;;;5007867;28;20016;-79
2022/07/03 06:53:47;;;;;;;;;;;24.10;52.90;;;;;;5007752;28;20346;-79
2022/07/03 06:56:14;;;;;;;;;;;24.10;52.90;;;;;;5009888;28;20043;-80
2022/07/03 06:58:41;;;;;;;;;;;24.10;53.00;;;;;;5012314;28;19921;-79
2022/07/03 07:01:07;;;;;;;;;;;24.10;53.00;;;;;;5011964;28;19945;-80
2022/07/03 07:03:35;;;;;;;;;;;24.10;53.10;;;;;;5009310;28;20388;-80
2022/07/03 07:06:02;;;;;;;;;;;24.10;53.10;;;;;;5007377;28;20024;-79
2022/07/03 07:08:29;;;;;;;;;;;24.10;53.20;;;;;;5007084;28;19989;-79
2022/07/03 07:10:56;;;;;;;;;;;24.10;53.20;;;;;;5011608;28;19925;-80
2022/07/03 07:13:22;;;;;;;;;;;24.10;53.30;;;;;;5011361;28;19980;-80
2022/07/03 07:15:49;;;;;;;;;;;24.10;53.40;;;;;;5006163;28;20013;-85
2022/07/03 07:18:16;;;;;;;;;;;24.10;53.40;;;;;;4998804;28;19926;-87
2022/07/03 07:20:44;;;;;;;;;;;24.10;53.50;;;;;;4997205;28;20012;-87
2022/07/03 07:23:10;;;;;;;;;;;24.10;53.50;;;;;;4997651;28;20296;-87
2022/07/03 07:25:37;;;;;;;;;;;24.10;53.60;;;;;;5006308;28;19929;-84
2022/07/03 07:28:04;;;;;;;;;;;24.20;53.70;;;;;;5004228;28;19972;-86
2022/07/03 07:30:31;;;;;;;;;;;24.20;53.80;;;;;;5003330;28;19960;-86
2022/07/03 07:32:58;;;;;;;;;;;24.20;53.80;;;;;;5000115;28;20449;-87
2022/07/03 07:35:24;;;;;;;;;;;24.20;53.90;;;;;;5000049;28;20005;-87
2022/07/03 07:37:52;;;;;;;;;;;24.20;54.00;;;;;;4999254;28;19969;-87
2022/07/03 07:40:19;;;;;;;;;;;24.20;54.00;;;;;;4999199;28;19922;-80
2022/07/03 07:42:46;;;;;;;;;;;24.20;54.10;;;;;;4999398;28;19921;-80
2022/07/03 07:45:12;;;;;;;;;;;24.20;54.10;;;;;;4999619;28;19921;-80
2022/07/03 07:47:39;;;;;;;;;;;24.20;54.20;;;;;;5000077;28;19944;-80
2022/07/03 07:50:06;;;;;;;;;;;24.20;54.20;;;;;;5000532;28;20349;-80
2022/07/03 07:52:33;;;;;;;;;;;24.20;54.30;;;;;;5000690;28;20008;-80
2022/07/03 07:55:01;;;;;;;;;;;24.20;54.30;;;;;;5000654;28;19968;-80
2022/07/03 07:57:34;;;;;;;;;;;24.10;54.30;;;;;;5001476;28;19925;-80
2022/07/03 08:00:00;;;;;;;;;;;24.20;54.40;;;;;;5001765;28;19928;-80
2022/07/03 08:07:55;;;;;;;;;;;24.20;54.50;;;;;;4999487;28;19982;-81
2022/07/03 08:10:23;;;;;;;;;;;24.20;54.60;;;;;;4999372;28;19968;-81
2022/07/03 08:12:50;;;;;;;;;;;24.20;54.50;;;;;;4998823;28;19969;-80
2022/07/03 08:15:17;;;;;;;;;;;24.20;54.60;;;;;;4999326;28;20005;-80
2022/07/03 08:17:43;;;;;;;;;;;24.20;54.50;;;;;;4998922;28;20033;-80
2022/07/03 08:20:10;;;;;;;;;;;24.20;54.50;;;;;;4998937;28;19928;-80
2022/07/03 08:22:37;;;;;;;;;;;24.20;54.50;;;;;;4999998;28;19961;-80
2022/07/03 08:25:04;;;;;;;;;;;24.20;54.50;;;;;;4999190;28;20016;-80
2022/07/03 08:27:32;;;;;;;;;;;24.20;54.50;;;;;;4999279;28;19928;-80
2022/07/03 08:29:59;;;;;;;;;;;24.20;54.50;;;;;;4999260;28;19928;-80
2022/07/03 08:32:25;;;;;;;;;;;24.20;54.40;;;;;;4999302;28;19972;-80
2022/07/03 08:34:52;;;;;;;;;;;24.20;54.40;;;;;;4999304;28;19980;-80
2022/07/03 08:37:18;;;;;;;;;;;24.20;54.40;;;;;;4998700;28;19969;-80
2022/07/03 08:39:45;;;;;;;;;;;24.20;54.30;;;;;;4998385;28;20319;-80
2022/07/03 08:42:12;;;;;;;;;;;24.20;54.30;;;;;;4997934;28;20333;-80
2022/07/03 08:44:40;;;;;;;;;;;24.20;54.30;;;;;;4998296;28;20329;-80
2022/07/03 08:47:08;;;;;;;;;;;24.10;54.20;;;;;;4997831;28;19921;-81
2022/07/03 08:49:35;;;;;;;;;;;24.20;54.20;;;;;;4997873;28;19921;-80
2022/07/03 08:52:01;;;;;;;;;;;24.20;54.20;;;;;;4998433;28;19921;-80
2022/07/03 08:54:28;;;;;;;;;;;24.20;54.10;;;;;;4997484;28;19932;-80
2022/07/03 08:56:55;;;;;;;;;;;24.10;53.90;;;;;;4997158;28;19925;-80
2022/07/03 08:59:22;;;;;;;;;;;24.20;53.90;;;;;;4996994;28;19921;-80
2022/07/03 09:01:50;;;;;;;;;;;24.20;53.80;;;;;;4995681;28;20024;-80
2022/07/03 09:04:17;;;;;;;;;;;24.20;53.80;;;;;;4997084;28;19922;-82
2022/07/03 09:06:43;;;;;;;;;;;24.20;53.70;;;;;;4996189;28;20396;-81
2022/07/03 09:09:10;;;;;;;;;;;24.20;53.60;;;;;;4996395;28;19922;-80
2022/07/03 09:11:37;;;;;;;;;;;24.20;53.50;;;;;;4995667;28;20401;-80
2022/07/03 09:14:06;;;;;;;;;;;24.20;53.50;;;;;;4995664;28;20396;-80
2022/07/03 09:16:34;;;;;;;;;;;24.20;53.40;;;;;;4995072;28;20300;-80
2022/07/03 09:19:04;;;;;;;;;;;24.20;53.30;;;;;;4996174;28;19922;-80
2022/07/03 09:21:38;;;;;;;;;;;24.20;53.20;;;;;;4995440;28;20408;-80
2022/07/03 09:24:06;;;;;;;;;;;24.20;53.20;;;;;;4995671;28;19922;-80
2022/07/03 09:26:33;;;;;;;;;;;24.20;53.10;;;;;;4995840;28;19926;-80
2022/07/03 09:29:00;;;;;;;;;;;24.20;53.00;;;;;;4995799;28;19922;-80
2022/07/03 09:31:27;;;;;;;;;;;24.10;52.80;;;;;;4995496;28;19922;-80
2022/07/03 09:33:54;;;;;;;;;;;24.20;52.90;;;;;;4995658;28;19926;-80
2022/07/03 09:36:23;;;;;;;;;;;24.20;52.80;;;;;;4994985;28;20017;-80
2022/07/03 09:38:50;;;;;;;;;;;24.20;52.70;;;;;;4995329;28;20023;-80
2022/07/03 09:41:17;;;;;;;;;;;24.20;52.60;;;;;;4995426;28;19921;-80
2022/07/03 09:43:44;;;;;;;;;;;24.20;52.50;;;;;;4995174;28;19922;-80
2022/07/03 09:46:11;;;;;;;;;;;24.20;52.40;;;;;;4995276;28;19921;-80
2022/07/03 09:48:38;;;;;;;;;;;24.20;52.40;;;;;;4995734;28;19921;-80
2022/07/03 09:51:12;;;;;;;;;;;24.20;52.30;;;;;;4995340;28;19928;-80
2022/07/03 09:53:53;;;;;;;;;;;24.20;52.20;;;;;;4995653;28;20016;-80
2022/07/03 09:56:20;;;;;;;;;;;24.20;52.20;;;;;;4995255;28;19922;-80
2022/07/03 09:59:03;;;;;;;;;;;24.20;52.10;;;;;;4995048;28;19926;-80
2022/07/03 10:01:30;;;;;;;;;;;24.20;52.00;;;;;;4995298;28;20333;-80
2022/07/03 10:04:09;;;;;;;;;;;24.30;52.00;;;;;;4995066;28;19925;-80
2022/07/03 10:06:46;;;;;;;;;;;24.30;51.90;;;;;;4995324;28;19922;-80
2022/07/03 10:09:15;;;;;;;;;;;24.20;51.80;;;;;;4995093;28;19922;-80
2022/07/03 10:11:42;;;;;;;;;;;24.30;51.70;;;;;;4995429;28;19922;-80
2022/07/03 10:14:09;;;;;;;;;;;24.30;51.70;;;;;;4995128;28;19921;-80
2022/07/03 10:16:36;;;;;;;;;;;24.30;51.50;;;;;;4994781;28;20016;-80
2022/07/03 10:19:04;;;;;;;;;;;24.30;51.50;;;;;;4994551;28;19928;-80
2022/07/03 10:21:31;;;;;;;;;;;24.30;51.40;;;;;;4994749;28;19921;-80
2022/07/03 10:23:58;;;;;;;;;;;24.30;51.40;;;;;;4994722;28;20365;-80
2022/07/03 10:26:27;;;;;;;;;;;24.30;51.30;;;;;;4994716;28;19928;-80
2022/07/03 10:28:54;;;;;;;;;;;24.30;51.20;;;;;;4997543;28;19921;-80
2022/07/03 10:31:21;;;;;;;;;;;24.30;51.20;;;;;;4998657;28;19922;-80
2022/07/03 10:33:47;;;;;;;;;;;24.30;51.10;;;;;;4998536;28;19972;-80
2022/07/03 10:36:14;;;;;;;;;;;24.30;51.00;;;;;;4998188;28;19921;-80
2022/07/03 10:38:42;;;;;;;;;;;24.40;51.10;;;;;;4998032;28;20012;-79
2022/07/03 10:46:43;;;;;;;;;;;24.40;50.90;;;;;;5000172;28;20297;-80
2022/07/03 10:49:10;;;;;;;;;;;24.40;51.00;;;;;;4997978;28;20393;-80
2022/07/03 10:51:54;;;;;;;;;;;24.40;51.00;;;;;;4997997;28;19925;-80
2022/07/03 10:54:21;;;;;;;;;;;24.50;51.10;;;;;;4998001;28;20385;-80
2022/07/03 10:57:07;;;;;;;;;;;24.50;51.10;;;;;;4998141;28;20387;-80
2022/07/03 10:59:52;;;;;;;;;;;24.50;51.20;;;;;;4998150;28;20377;-81
2022/07/03 11:02:21;;;;;;;;;;;24.50;51.30;;;;;;4998119;28;19932;-81
2022/07/03 11:05:06;;;;;;;;;;;24.50;51.40;;;;;;4997995;28;19926;-81
2022/07/03 11:07:34;;;;;;;;;;;24.60;51.50;;;;;;4997951;28;19922;-81
2022/07/03 11:10:16;;;;;;;;;;;24.60;51.50;;;;;;4997590;28;20373;-81
2022/07/03 11:13:01;;;;;;;;;;;24.60;51.60;;;;;;4997120;28;19994;-81
2022/07/03 11:15:28;;;;;;;;;;;24.60;51.60;;;;;;4988743;28;19925;-89
2022/07/03 11:18:19;;;;;;;;;;;24.60;51.70;;;;;;4997209;28;20012;-88
2022/07/03 11:21:18;;;;;;;;;;;24.60;51.80;;;;;;4982192;28;20362;-88
2022/07/03 11:23:54;;;;;;;;;;;24.70;52.00;;;;;;4997273;28;19921;-88
2022/07/03 11:26:22;;;;;;;;;;;24.70;52.10;;;;;;4996852;28;20369;-90
2022/07/03 11:28:49;;;;;;;;;;;24.70;52.20;;;;;;4996909;28;20020;-87
2022/07/03 11:31:19;;;;;;;;;;;24.70;52.40;;;;;;4998641;28;20448;-87
2022/07/03 11:33:46;;;;;;;;;;;24.70;52.50;;;;;;4998876;28;20285;-86
2022/07/03 11:36:25;;;;;;;;;;;24.80;52.70;;;;;;4998906;28;20025;-85
2022/07/03 11:39:02;;;;;;;;;;;24.80;52.80;;;;;;4999613;28;19922;-86
2022/07/03 11:41:30;;;;;;;;;;;24.80;52.90;;;;;;4997390;28;19921;-90
2022/07/03 11:43:57;;;;;;;;;;;24.80;53.00;;;;;;4997915;28;19928;-79
2022/07/03 11:46:24;;;;;;;;;;;24.80;53.10;;;;;;4998218;28;19992;-79
2022/07/03 11:49:04;;;;;;;;;;;24.80;53.20;;;;;;4997918;28;20280;-79
2022/07/03 11:51:31;;;;;;;;;;;24.80;53.30;;;;;;4997700;28;20296;-79
2022/07/03 11:53:59;;;;;;;;;;;24.80;53.30;;;;;;4998160;28;19925;-79
2022/07/03 12:25:01;;;;;;;;;;;24.80;54.10;;;;;;5634603;23;19946;-84
2022/07/03 12:27:28;;;;;;;;;;;24.80;54.20;;;;;;5002857;28;19993;-80
2022/07/03 12:29:55;;;;;;;;;;;24.70;54.10;;;;;;5002924;28;20024;-82
2022/07/03 12:32:22;;;;;;;;;;;24.70;54.20;;;;;;5002252;28;20020;-86
2022/07/03 12:34:48;;;;;;;;;;;24.80;54.40;;;;;;5008464;28;19945;-79
2022/07/03 12:37:15;;;;;;;;;;;24.70;54.30;;;;;;5015113;28;19922;-78
2022/07/03 12:39:42;;;;;;;;;;;24.70;54.40;;;;;;5012996;28;19922;-80
2022/07/03 12:42:17;;;;;;;;;;;24.70;54.50;;;;;;5001211;28;20339;-77
2022/07/03 12:44:55;;;;;;;;;;;24.70;54.60;;;;;;4995442;28;20032;-78
2022/07/03 12:47:22;;;;;;;;;;;24.80;55.00;;;;;;4995035;28;20351;-78
2022/07/03 12:49:55;;;;;;;;;;;24.80;55.20;;;;;;4995084;28;20385;-76
2022/07/03 12:52:21;;;;;;;;;;;24.80;55.50;;;;;;4997001;28;20012;-76
2022/07/03 12:54:48;;;;;;;;;;;24.90;55.90;;;;;;4995442;28;19921;-77
2022/07/03 13:00:05;;;;;;;;;;;24.90;56.00;;;;;;4998462;28;19928;-78
2022/07/03 13:02:32;;;;;;;;;;;24.90;56.30;;;;;;4995967;28;19928;-78
2022/07/03 13:04:59;;;;;;;;;;;24.90;56.60;;;;;;4998359;28;20004;-81
2022/07/03 13:07:29;;;;;;;;;;;25.00;56.90;;;;;;5000117;28;19977;-82
2022/07/03 13:09:55;;;;;;;;;;;25.00;57.10;;;;;;5006011;28;19953;-81
2022/07/03 13:12:23;;;;;;;;;;;25.00;57.40;;;;;;5002109;28;20001;-82
2022/07/03 13:14:56;;;;;;;;;;;25.00;57.70;;;;;;5000741;28;19928;-82
2022/07/03 13:17:24;;;;;;;;;;;25.10;58.00;;;;;;5000371;28;20009;-82
2022/07/03 13:19:51;;;;;;;;;;;25.10;58.20;;;;;;5003610;28;19965;-82
2022/07/03 13:22:18;;;;;;;;;;;25.10;58.40;;;;;;5001908;28;20001;-82
2022/07/03 13:24:44;;;;;;;;;;;25.10;58.60;;;;;;4999987;28;20002;-84
2022/07/03 13:27:11;;;;;;;;;;;25.10;58.80;;;;;;5001609;28;19961;-83
2022/07/03 13:29:37;;;;;;;;;;;25.10;59.00;;;;;;5001161;28;20004;-84
2022/07/03 13:32:05;;;;;;;;;;;25.10;59.30;;;;;;5001056;28;19977;-84
2022/07/03 13:34:33;;;;;;;;;;;25.10;59.50;;;;;;5001630;28;19988;-84
2022/07/03 13:36:59;;;;;;;;;;;25.10;59.70;;;;;;5000708;28;20436;-84
2022/07/03 13:39:26;;;;;;;;;;;25.20;59.90;;;;;;5001199;28;20437;-83
2022/07/03 13:41:52;;;;;;;;;;;25.10;60.10;;;;;;5001143;28;19987;-83
2022/07/03 13:44:19;;;;;;;;;;;25.10;60.30;;;;;;5002557;28;20003;-83
2022/07/03 13:46:46;;;;;;;;;;;25.20;60.70;;;;;;5002825;28;19969;-83
2022/07/03 13:49:13;;;;;;;;;;;25.20;61.00;;;;;;5002559;28;20000;-83
2022/07/03 13:51:41;;;;;;;;;;;25.20;61.10;;;;;;5000292;28;19979;-83
2022/07/03 13:54:09;;;;;;;;;;;25.20;61.20;;;;;;4997446;28;19922;-83
2022/07/03 13:56:35;;;;;;;;;;;25.20;61.10;;;;;;4994934;28;20021;-80
2022/07/03 13:59:02;;;;;;;;;;;25.20;61.10;;;;;;4995802;28;20377;-78
2022/07/03 14:01:29;;;;;;;;;;;25.20;61.50;;;;;;4996181;28;19928;-77
2022/07/03 14:03:55;;;;;;;;;;;25.20;62.10;;;;;;4999324;28;20020;-78
2022/07/03 14:06:22;;;;;;;;;;;25.30;62.60;;;;;;5000386;28;20320;-78
2022/07/03 14:08:50;;;;;;;;;;;25.30;62.90;;;;;;5000461;28;19953;-78
2022/07/03 14:11:17;;;;;;;;;;;25.30;63.20;;;;;;5000172;28;19938;-78
2022/07/03 14:13:43;;;;;;;;;;;25.30;63.40;;;;;;5000465;28;20024;-78
2022/07/03 14:16:11;;;;;;;;;;;25.30;63.70;;;;;;5000404;28;20383;-78
2022/07/03 14:18:38;;;;;;;;;;;25.30;64.00;;;;;;5000191;28;19928;-78
2022/07/03 14:21:05;;;;;;;;;;;25.30;64.30;;;;;;5000437;28;20356;-79
2022/07/03 14:23:32;;;;;;;;;;;25.30;64.50;;;;;;4999533;28;19928;-78
2022/07/03 14:26:00;;;;;;;;;;;25.30;64.80;;;;;;4998278;28;19922;-78
2022/07/03 14:33:57;;;;;;;;;;;25.30;65.50;;;;;;4997019;28;20377;-79
2022/07/03 14:36:24;;;;;;;;;;;25.30;66.40;;;;;;4998334;28;20292;-78
2022/07/03 14:38:51;;;;;;;;;;;25.30;65.80;;;;;;4998050;28;19921;-78
2022/07/03 14:41:19;;;;;;;;;;;25.30;65.90;;;;;;4998083;28;19928;-78
2022/07/03 14:43:46;;;;;;;;;;;25.30;66.00;;;;;;4997691;28;20040;-79
2022/07/03 14:46:12;;;;;;;;;;;25.30;66.00;;;;;;5003308;28;19964;-78
2022/07/03 14:48:40;;;;;;;;;;;25.30;66.10;;;;;;5009600;28;19912;-82
2022/07/03 14:51:06;;;;;;;;;;;25.30;66.10;;;;;;5008964;28;19989;-81
2022/07/03 14:53:33;;;;;;;;;;;25.30;66.10;;;;;;4998199;28;20016;-81
2022/07/03 14:56:00;;;;;;;;;;;25.30;66.10;;;;;;4997508;28;19925;-81
2022/07/03 14:58:30;;;;;;;;;;;25.30;66.20;;;;;;4999341;28;20420;-81
2022/07/03 15:00:57;;;;;;;;;;;25.30;66.30;;;;;;4997876;28;20008;-81
2022/07/03 15:03:28;;;;;;;;;;;25.30;66.30;;;;;;4999093;28;19988;-83
2022/07/03 15:05:55;;;;;;;;;;;25.20;66.30;;;;;;4998466;28;19922;-80
2022/07/03 15:08:30;;;;;;;;;;;25.30;66.40;;;;;;5000014;28;20032;-80
2022/07/03 15:10:57;;;;;;;;;;;25.20;66.30;;;;;;5001613;28;20029;-80